Time;durP1;ratioP1;P1;durP2;ratioP2;P2;SDS_P1;SDS_P2;PMS_P1;PMS_P2;Temp;Humidity;BMP_temperature;BMP_pressure;BME280_temperature;BME280_humidity;BME280_pressure;Samples;Min_cycle;Max_cycle;Signal;HPM_P1;HPM_P2
2021/01/13 00:02:08;;;;;;;15.00;9.93;;;-0.10;95.70;;;;;;5092809;28;20028;-82
2021/01/13 00:04:35;;;;;;;17.73;9.83;;;-0.10;96.10;;;;;;5092645;28;20019;-80
2021/01/13 00:07:02;;;;;;;16.37;9.60;;;-0.10;96.30;;;;;;5092166;28;20023;-79
2021/01/13 00:09:28;;;;;;;19.00;9.07;;;-0.20;96.20;;;;;;5092960;28;20503;-80
2021/01/13 00:11:57;;;;;;;16.00;10.13;;;-0.30;96.50;;;;;;5092994;28;20024;-81
2021/01/13 00:14:25;;;;;;;16.97;8.90;;;-0.20;96.60;;;;;;5092410;28;20532;-80
2021/01/13 00:16:51;;;;;;;17.97;10.07;;;-0.20;96.40;;;;;;5110896;28;20046;-78
2021/01/13 00:19:18;;;;;;;18.33;9.03;;;-0.20;96.30;;;;;;5092909;28;20027;-79
2021/01/13 00:21:51;;;;;;;12.37;7.50;;;-0.10;96.10;;;;;;5091685;28;20043;-80
2021/01/13 00:24:17;;;;;;;14.87;7.73;;;-0.10;95.80;;;;;;5091989;28;20060;-79
2021/01/13 00:26:44;;;;;;;16.87;7.50;;;0.00;95.70;;;;;;5092496;28;20438;-81
2021/01/13 00:29:14;;;;;;;11.60;7.53;;;0.00;95.50;;;;;;5092197;28;20696;-80
2021/01/13 00:31:40;;;;;;;13.23;7.20;;;0.00;95.50;;;;;;5110087;28;20020;-80
2021/01/13 00:34:07;;;;;;;11.57;6.90;;;0.00;95.30;;;;;;5110770;28;20023;-79
2021/01/13 00:36:33;;;;;;;14.57;6.93;;;0.00;95.10;;;;;;5092315;28;20012;-81
2021/01/13 00:38:59;;;;;;;11.67;7.17;;;0.00;95.10;;;;;;5092451;28;20087;-81
2021/01/13 00:41:25;;;;;;;10.47;7.10;;;0.10;95.20;;;;;;5092537;28;20031;-82
2021/01/13 00:43:54;;;;;;;11.00;7.07;;;0.20;94.90;;;;;;5092354;28;20023;-78
2021/01/13 00:46:21;;;;;;;10.80;6.57;;;0.20;94.50;;;;;;5092175;28;20034;-85
2021/01/13 00:48:47;;;;;;;11.67;6.47;;;0.20;94.20;;;;;;5093151;28;20069;-83
2021/01/13 00:51:13;;;;;;;10.03;5.80;;;0.10;94.60;;;;;;5127120;28;20438;-85
2021/01/13 00:53:40;;;;;;;11.67;7.37;;;0.20;94.50;;;;;;5093064;28;20111;-85
2021/01/13 00:56:06;;;;;;;12.87;7.83;;;0.10;94.60;;;;;;5093164;28;20072;-80
2021/01/13 00:58:32;;;;;;;19.37;7.73;;;0.00;94.90;;;;;;5092756;28;20027;-82
2021/01/13 01:00:59;;;;;;;16.13;8.77;;;0.00;95.20;;;;;;5092250;28;20496;-83
2021/01/13 01:03:25;;;;;;;17.33;9.40;;;-0.10;95.50;;;;;;5093025;28;20031;-78
2021/01/13 01:05:51;;;;;;;16.83;8.47;;;-0.10;95.90;;;;;;5091980;28;20047;-79
2021/01/13 01:08:17;;;;;;;17.37;9.77;;;-0.10;95.90;;;;;;5112856;28;20031;-82
2021/01/13 01:10:47;;;;;;;12.43;8.67;;;-0.30;95.30;;;;;;5096897;28;20362;-80
2021/01/13 01:13:13;;;;;;;14.03;8.00;;;-0.30;95.90;;;;;;5098639;28;20080;-80
2021/01/13 01:15:39;;;;;;;15.80;8.73;;;-0.30;96.20;;;;;;5117545;28;20028;-80
2021/01/13 01:18:05;;;;;;;16.73;8.93;;;-0.30;96.30;;;;;;5117104;28;20034;-81
2021/01/13 01:20:31;;;;;;;13.47;8.30;;;-0.30;96.40;;;;;;5117162;28;20051;-81
2021/01/13 01:22:57;;;;;;;15.60;7.90;;;-0.30;96.50;;;;;;5123333;27;20703;-81
2021/01/13 01:25:25;;;;;;;13.83;7.47;;;-0.20;96.30;;;;;;5137234;27;20106;-81
2021/01/13 01:27:55;;;;;;;14.87;7.43;;;-0.20;96.20;;;;;;5137356;27;20030;-81
2021/01/13 01:30:22;;;;;;;12.63;7.23;;;-0.20;96.00;;;;;;5118890;27;20020;-81
2021/01/13 01:32:49;;;;;;;12.23;7.63;;;-0.20;96.00;;;;;;5118914;27;20011;-81
2021/01/13 01:35:15;;;;;;;13.30;7.67;;;-0.30;95.90;;;;;;5118941;27;20015;-81
2021/01/13 01:37:42;;;;;;;12.47;7.37;;;-0.30;96.30;;;;;;5118815;27;20025;-81
2021/01/13 01:40:16;;;;;;;12.50;7.00;;;-0.30;96.40;;;;;;5133639;27;20397;-81
2021/01/13 01:42:49;;;;;;;13.43;7.60;;;-0.30;96.40;;;;;;5098249;28;20020;-80
2021/01/13 01:45:17;;;;;;;18.40;7.57;;;-0.30;96.30;;;;;;5097909;28;20023;-80
2021/01/13 01:48:01;;;;;;;14.57;8.33;;;-0.30;96.20;;;;;;5115781;28;20508;-80
2021/01/13 01:50:33;;;;;;;10.77;6.53;;;-0.20;96.40;;;;;;5115919;28;20104;-80
2021/01/13 01:53:12;;;;;;;12.60;6.17;;;-0.20;96.70;;;;;;5116180;28;20073;-80
2021/01/13 01:56:02;;;;;;;8.17;5.93;;;-0.10;96.20;;;;;;5115899;28;20077;-80
2021/01/13 01:58:29;;;;;;;8.87;4.67;;;-0.10;95.90;;;;;;5115601;28;20430;-80
2021/01/13 02:01:00;;;;;;;10.20;5.90;;;-0.20;95.70;;;;;;5115887;28;20374;-80
2021/01/13 02:03:51;;;;;;;6.97;4.80;;;-0.20;95.80;;;;;;5097849;28;20110;-80
2021/01/13 02:06:18;;;;;;;11.47;4.90;;;-0.20;95.90;;;;;;5057495;28;20659;-80
2021/01/13 02:08:46;;;;;;;14.57;6.00;;;-0.20;96.00;;;;;;5094263;28;20020;-80
2021/01/13 02:11:19;;;;;;;8.20;5.80;;;-0.20;96.10;;;;;;5094309;28;20024;-80
2021/01/13 02:13:47;;;;;;;5.10;4.60;;;-0.30;96.10;;;;;;5095719;28;20020;-80
2021/01/13 02:16:15;;;;;;;11.63;5.33;;;-0.30;96.20;;;;;;5094372;28;20027;-80
2021/01/13 02:18:43;;;;;;;6.47;4.20;;;-0.30;96.40;;;;;;5093043;28;20028;-80
2021/01/13 02:21:19;;;;;;;8.47;5.03;;;-0.30;96.30;;;;;;5094000;28;20077;-80
2021/01/13 02:23:47;;;;;;;5.63;4.77;;;-0.30;96.40;;;;;;5095391;28;20031;-80
2021/01/13 02:26:25;;;;;;;6.97;5.03;;;-0.30;96.40;;;;;;5095482;28;20024;-80
2021/01/13 02:28:54;;;;;;;7.57;4.80;;;-0.30;96.50;;;;;;5095266;28;20035;-80
2021/01/13 02:31:33;;;;;;;8.67;5.23;;;-0.20;96.30;;;;;;5093923;28;20027;-80
2021/01/13 02:34:37;;;;;;;6.57;4.20;;;-0.30;96.10;;;;;;5095284;28;20069;-80
2021/01/13 02:37:42;;;;;;;8.93;5.10;;;-0.30;96.50;;;;;;5094100;28;20052;-80
2021/01/13 02:40:31;;;;;;;8.07;4.97;;;-0.40;96.20;;;;;;5084972;28;20040;-80
2021/01/13 02:43:17;;;;;;;6.70;5.23;;;-0.40;96.50;;;;;;5087984;28;20028;-80
2021/01/13 02:45:46;;;;;;;11.53;6.07;;;-0.50;97.00;;;;;;5092630;28;20020;-80
2021/01/13 02:48:14;;;;;;;7.07;5.30;;;-0.50;97.40;;;;;;5073290;28;20054;-80
2021/01/13 02:50:53;;;;;;;10.77;6.10;;;-0.50;97.30;;;;;;5073303;28;20390;-80
2021/01/13 02:53:22;;;;;;;10.07;5.63;;;-0.40;97.10;;;;;;5073455;28;20028;-80
2021/01/13 02:55:48;;;;;;;8.30;5.20;;;-0.40;97.00;;;;;;5074550;28;20021;-80
2021/01/13 02:58:26;;;;;;;5.90;4.53;;;-0.40;96.70;;;;;;5079707;28;20054;-80
2021/01/13 03:00:53;;;;;;;10.30;5.60;;;-0.40;96.60;;;;;;5094656;28;20036;-80
2021/01/13 03:03:20;;;;;;;11.60;5.97;;;-0.50;97.10;;;;;;5093314;28;20501;-80
2021/01/13 03:05:46;;;;;;;8.93;6.73;;;-0.60;97.30;;;;;;5093191;28;20052;-80
2021/01/13 03:08:14;;;;;;;11.33;6.60;;;-0.70;97.80;;;;;;5093314;28;20032;-80
2021/01/13 03:10:48;;;;;;;9.97;6.10;;;-0.80;98.40;;;;;;5093158;28;20031;-80
2021/01/13 03:13:14;;;;;;;7.10;5.20;;;-0.80;98.50;;;;;;5093229;28;20035;-80
2021/01/13 03:15:40;;;;;;;8.60;5.03;;;-0.70;98.50;;;;;;5093224;28;20643;-80
2021/01/13 03:18:10;;;;;;;6.93;4.77;;;-0.70;98.20;;;;;;5089665;28;20029;-80
2021/01/13 03:20:43;;;;;;;9.77;5.20;;;-0.60;98.10;;;;;;5072715;28;20039;-80
2021/01/13 03:23:13;;;;;;;9.87;5.50;;;-0.60;98.20;;;;;;5072707;28;20505;-80
2021/01/13 03:25:49;;;;;;;8.93;5.07;;;-0.70;97.80;;;;;;5072732;28;20458;-80
2021/01/13 03:28:17;;;;;;;14.00;5.33;;;-0.60;97.90;;;;;;5073931;28;20059;-80
2021/01/13 03:30:49;;;;;;;12.83;5.33;;;-0.60;98.00;;;;;;5082596;28;20016;-80
2021/01/13 03:33:24;;;;;;;7.25;5.47;;;-0.60;97.90;;;;;;5092898;28;20024;-80
2021/01/13 03:35:53;;;;;;;7.70;4.50;;;-0.60;97.80;;;;;;5085433;28;20391;-80
2021/01/13 03:38:19;;;;;;;8.27;4.00;;;-0.50;97.90;;;;;;5073782;28;20025;-80
2021/01/13 03:40:47;;;;;;;4.93;3.73;;;-0.40;97.60;;;;;;5072079;28;20098;-80
2021/01/13 03:43:21;;;;;;;11.07;4.40;;;-0.40;97.50;;;;;;5090903;28;20389;-80
2021/01/13 03:45:53;;;;;;;6.43;4.40;;;-0.40;97.70;;;;;;5086498;28;20420;-80
2021/01/13 03:48:36;;;;;;;6.78;3.95;;;-0.40;97.50;;;;;;5073381;28;20028;-80
2021/01/13 03:51:03;;;;;;;8.70;5.53;;;-0.40;97.00;;;;;;5073592;28;20025;-80
2021/01/13 03:53:38;;;;;;;7.43;5.23;;;-0.70;97.30;;;;;;5072262;28;20391;-80
2021/01/13 03:56:05;;;;;;;12.57;6.40;;;-0.90;98.20;;;;;;5072332;28;20021;-80
2021/01/13 03:58:49;;;;;;;9.53;6.07;;;-0.90;98.90;;;;;;5082873;28;20038;-80
2021/01/13 04:01:24;;;;;;;9.13;5.83;;;-0.80;99.10;;;;;;5092383;28;20445;-80
2021/01/13 04:04:08;;;;;;;10.97;6.53;;;-1.00;98.10;;;;;;5092314;28;20031;-80
2021/01/13 04:06:44;;;;;;;14.37;7.80;;;-1.00;98.10;;;;;;5092172;28;20143;-80
2021/01/13 04:09:14;;;;;;;15.07;7.73;;;-1.10;98.80;;;;;;5093502;28;20043;-80
2021/01/13 04:11:44;;;;;;;11.20;7.40;;;-1.00;99.00;;;;;;5093650;28;20457;-80
2021/01/13 04:14:10;;;;;;;11.10;7.03;;;-1.00;98.10;;;;;;5092054;28;20036;-79
2021/01/13 04:16:39;;;;;;;12.80;7.67;;;-1.20;98.00;;;;;;5092207;28;20179;-80
2021/01/13 04:19:06;;;;;;;12.00;7.17;;;-1.20;99.10;;;;;;5079250;28;20031;-80
2021/01/13 04:21:33;;;;;;;14.90;7.90;;;-1.20;99.60;;;;;;5071839;28;20025;-80
2021/01/13 04:24:00;;;;;;;16.40;8.20;;;-1.10;99.80;;;;;;5073174;28;20020;-80
2021/01/13 04:26:27;;;;;;;14.07;8.20;;;-1.10;99.60;;;;;;5071580;28;20028;-80
2021/01/13 04:28:53;;;;;;;14.30;8.80;;;-1.10;99.50;;;;;;5072825;28;20029;-80
2021/01/13 04:31:19;;;;;;;12.90;8.50;;;-1.10;99.70;;;;;;5071637;28;20048;-80
2021/01/13 04:33:46;;;;;;;13.83;8.13;;;-1.10;99.50;;;;;;5071571;28;20054;-80
2021/01/13 04:36:14;;;;;;;11.63;6.97;;;-1.30;99.40;;;;;;5073001;28;20104;-80
2021/01/13 04:38:40;;;;;;;9.47;7.10;;;-1.30;99.90;;;;;;5072477;28;20024;-80
2021/01/13 04:41:11;;;;;;;10.60;6.50;;;-1.30;99.90;;;;;;5072717;28;20390;-80
2021/01/13 04:43:56;;;;;;;9.35;6.22;;;-1.20;99.90;;;;;;5070870;28;20036;-80
2021/01/13 04:46:39;;;;;;;8.60;5.50;;;-1.20;99.90;;;;;;5071638;28;20620;-80
2021/01/13 04:49:05;;;;;;;10.10;5.90;;;-1.20;99.90;;;;;;5061948;28;20089;-80
2021/01/13 04:51:54;;;;;;;6.87;5.03;;;-1.10;99.90;;;;;;5078070;28;20067;-80
2021/01/13 04:54:20;;;;;;;8.20;5.23;;;-1.00;99.90;;;;;;5092902;28;20069;-80
2021/01/13 04:56:46;;;;;;;9.47;5.17;;;-1.20;99.50;;;;;;5074726;28;20028;-80
2021/01/13 04:59:43;;;;;;;6.17;4.60;;;-1.20;99.90;;;;;;5071382;28;20039;-80
2021/01/13 05:02:09;;;;;;;8.90;4.67;;;-1.20;99.90;;;;;;5072406;28;20024;-80
2021/01/13 05:04:56;;;;;;;7.57;4.77;;;-1.30;99.70;;;;;;5078115;28;20532;-80
2021/01/13 05:07:32;;;;;;;7.13;4.77;;;-1.40;99.90;;;;;;5094912;28;20027;-80
2021/01/13 05:10:13;;;;;;;6.63;4.50;;;-1.30;99.90;;;;;;5094865;28;20054;-80
2021/01/13 05:12:58;;;;;;;5.63;4.30;;;-1.20;99.90;;;;;;5094822;28;20415;-80
2021/01/13 05:15:29;;;;;;;7.73;4.33;;;-1.10;99.90;;;;;;5094886;28;20024;-80
2021/01/13 05:18:01;;;;;;;6.22;4.50;;;-1.10;99.90;;;;;;5113102;28;20059;-80
2021/01/13 05:20:29;;;;;;;5.78;5.00;;;-1.20;99.90;;;;;;5094779;28;20100;-80
2021/01/13 05:22:56;;;;;;;7.67;4.90;;;-1.10;99.90;;;;;;5112948;28;20076;-80
2021/01/13 05:25:42;;;;;;;5.67;4.50;;;-1.10;99.90;;;;;;5112900;28;20040;-80
2021/01/13 05:28:21;;;;;;;4.90;4.40;;;-1.10;99.90;;;;;;5092090;28;20111;-80
2021/01/13 05:30:59;;;;;;;6.23;4.27;;;-0.90;99.90;;;;;;5108088;28;20381;-81
2021/01/13 05:33:30;;;;;;;5.00;4.47;;;-0.80;99.90;;;;;;5092475;28;20020;-80
2021/01/13 05:36:03;;;;;;;7.57;4.47;;;-0.80;99.90;;;;;;5108270;28;20024;-81
2021/01/13 05:39:06;;;;;;;7.43;4.90;;;-0.80;99.90;;;;;;5092556;28;20509;-80
2021/01/13 05:41:35;;;;;;;9.32;5.32;;;-0.90;99.90;;;;;;5108099;28;20028;-80
2021/01/13 05:44:01;;;;;;;5.83;5.13;;;-0.90;99.90;;;;;;5079180;28;20019;-80
2021/01/13 05:46:45;;;;;;;7.20;4.80;;;-0.90;99.90;;;;;;5094560;28;20024;-80
2021/01/13 05:49:11;;;;;;;9.03;3.90;;;-0.90;99.90;;;;;;5093746;28;20477;-80
2021/01/13 05:51:38;;;;;;;8.50;4.50;;;-0.90;99.90;;;;;;5094340;28;20503;-80
2021/01/13 05:54:05;;;;;;;10.27;4.33;;;-0.80;99.90;;;;;;5114712;28;20028;-80
2021/01/13 05:56:37;;;;;;;6.27;4.57;;;-0.70;99.90;;;;;;5116381;28;20043;-80
2021/01/13 05:59:04;;;;;;;10.43;4.27;;;-0.60;99.70;;;;;;5116172;28;20431;-81
2021/01/13 06:01:33;;;;;;;6.53;4.33;;;-0.50;99.30;;;;;;5116003;28;20535;-80
2021/01/13 06:03:59;;;;;;;8.30;4.30;;;-0.40;98.90;;;;;;5097809;28;20396;-80
2021/01/13 06:06:26;;;;;;;4.57;3.87;;;-0.40;98.70;;;;;;5116064;28;20044;-81
2021/01/13 06:08:55;;;;;;;6.47;4.43;;;-0.40;98.60;;;;;;5097839;28;20034;-80
2021/01/13 06:11:25;;;;;;;11.83;5.90;;;-0.40;98.50;;;;;;5115789;28;20102;-80
2021/01/13 06:13:51;;;;;;;7.53;5.27;;;-0.50;98.60;;;;;;5097633;28;20027;-80
2021/01/13 06:16:17;;;;;;;11.87;5.17;;;-0.50;98.90;;;;;;5097784;28;20445;-80
2021/01/13 06:18:44;;;;;;;6.37;5.13;;;-0.50;98.80;;;;;;5115886;28;20058;-80
2021/01/13 06:21:13;;;;;;;6.40;5.10;;;-0.60;98.70;;;;;;5115975;28;20051;-80
2021/01/13 06:23:50;;;;;;;6.73;4.67;;;-0.40;98.60;;;;;;5097428;28;20062;-80
2021/01/13 06:26:18;;;;;;;8.23;4.57;;;-0.40;98.50;;;;;;5097309;28;20027;-80
2021/01/13 06:29:12;;;;;;;6.23;4.63;;;-0.40;98.50;;;;;;5097057;28;20027;-79
2021/01/13 06:31:43;;;;;;;6.20;4.90;;;-0.30;98.30;;;;;;5131006;27;20073;-77
2021/01/13 06:34:29;;;;;;;7.13;4.57;;;-0.30;98.10;;;;;;5096967;28;20026;-78
2021/01/13 06:37:36;;;;;;;6.17;4.57;;;-0.40;98.00;;;;;;5115212;28;20069;-78
2021/01/13 06:40:13;;;;;;;10.90;5.83;;;-0.40;98.00;;;;;;5015863;28;20116;-78
2021/01/13 06:42:40;;;;;;;10.13;4.83;;;-0.40;98.10;;;;;;5092076;28;20063;-78
2021/01/13 06:45:10;;;;;;;6.93;4.90;;;-0.40;98.20;;;;;;5115581;28;20110;-78
2021/01/13 06:47:52;;;;;;;9.03;5.20;;;-0.40;98.10;;;;;;5131106;27;20024;-78
2021/01/13 06:50:38;;;;;;;7.97;5.35;;;-0.40;98.10;;;;;;5096783;28;20131;-77
2021/01/13 06:53:12;;;;;;;10.83;6.00;;;-0.40;98.10;;;;;;5115425;28;20473;-78
2021/01/13 06:55:40;;;;;;;8.93;6.10;;;-0.40;98.00;;;;;;5096956;28;20073;-78
2021/01/13 06:58:16;;;;;;;9.17;5.67;;;-0.40;97.90;;;;;;5096592;28;20027;-78
2021/01/13 07:00:44;;;;;;;11.43;6.57;;;-0.30;97.80;;;;;;5115104;28;20585;-78
2021/01/13 07:03:29;;;;;;;15.47;9.93;;;-0.40;97.70;;;;;;5096826;28;20034;-78
2021/01/13 07:06:00;;;;;;;14.40;8.70;;;-0.40;97.90;;;;;;5093844;28;20082;-77
2021/01/13 07:08:27;;;;;;;13.63;8.82;;;-0.50;98.10;;;;;;5076295;28;20028;-77
2021/01/13 07:11:02;;;;;;;15.20;8.27;;;-0.50;98.00;;;;;;5095641;28;20049;-78
2021/01/13 07:13:29;;;;;;;11.43;7.57;;;-0.50;98.00;;;;;;5114415;28;20028;-78
2021/01/13 07:16:02;;;;;;;10.27;5.87;;;-0.40;98.10;;;;;;5096381;28;20047;-77
2021/01/13 07:18:28;;;;;;;7.77;5.73;;;-0.40;97.90;;;;;;5114883;28;20478;-79
2021/01/13 07:20:55;;;;;;;9.17;6.07;;;-0.40;97.80;;;;;;5118609;27;20076;-80
2021/01/13 07:23:21;;;;;;;8.63;6.00;;;-0.30;97.70;;;;;;5120778;27;20028;-81
2021/01/13 07:25:49;;;;;;;11.20;6.50;;;-0.30;97.60;;;;;;5114685;28;20024;-80
2021/01/13 07:28:16;;;;;;;16.23;6.23;;;-0.30;97.50;;;;;;5114494;28;20019;-81
2021/01/13 07:30:43;;;;;;;16.17;6.90;;;-0.30;97.60;;;;;;5096214;28;20026;-81
2021/01/13 07:33:13;;;;;;;16.37;8.47;;;-0.30;97.60;;;;;;5114357;28;20019;-81
2021/01/13 07:35:46;;;;;;;14.97;7.03;;;-0.40;97.60;;;;;;5114602;28;20043;-81
2021/01/13 07:38:16;;;;;;;11.60;6.63;;;-0.40;97.70;;;;;;5096273;28;20107;-81
2021/01/13 07:40:55;;;;;;;11.17;6.70;;;-0.40;97.80;;;;;;5095769;28;20027;-81
2021/01/13 07:43:46;;;;;;;10.43;5.97;;;-0.30;97.60;;;;;;5095853;28;20032;-81
2021/01/13 07:46:27;;;;;;;10.83;6.40;;;-0.30;97.50;;;;;;5096064;28;20054;-81
2021/01/13 07:49:23;;;;;;;14.10;6.32;;;-0.30;97.50;;;;;;5114121;28;20424;-81
2021/01/13 07:51:58;;;;;;;12.53;5.83;;;-0.20;97.20;;;;;;5113791;28;20024;-81
2021/01/13 07:54:36;;;;;;;11.90;5.93;;;-0.20;97.20;;;;;;5080950;28;20370;-81
2021/01/13 07:57:04;;;;;;;9.30;6.37;;;-0.10;97.20;;;;;;5103641;28;20075;-80
2021/01/13 07:59:45;;;;;;;18.13;8.63;;;-0.10;97.10;;;;;;5107413;28;20373;-81
2021/01/13 08:02:35;;;;;;;23.17;8.23;;;-0.10;97.40;;;;;;5092925;28;20111;-81
2021/01/13 08:05:16;;;;;;;7.40;5.20;;;-0.10;97.30;;;;;;5095300;28;20042;-81
2021/01/13 08:07:43;;;;;;;10.40;5.73;;;0.00;96.90;;;;;;5093054;28;20503;-80
2021/01/13 08:10:10;;;;;;;11.63;6.07;;;0.00;96.70;;;;;;5094607;28;20265;-80
2021/01/13 08:13:09;;;;;;;9.77;7.33;;;0.10;96.60;;;;;;5112394;28;20108;-81
2021/01/13 08:15:57;;;;;;;10.03;7.00;;;0.10;96.80;;;;;;5107405;28;20023;-81
2021/01/13 08:18:23;;;;;;;12.43;6.40;;;0.20;96.70;;;;;;5094678;28;20039;-80
2021/01/13 08:21:28;;;;;;;13.73;6.40;;;0.30;96.10;;;;;;5094305;28;20035;-80
2021/01/13 08:24:15;;;;;;;14.10;8.77;;;0.40;95.90;;;;;;5108959;28;20402;-81
2021/01/13 08:26:41;;;;;;;20.17;9.00;;;0.40;95.90;;;;;;5094043;28;20038;-80
2021/01/13 08:29:17;;;;;;;23.63;11.33;;;0.50;96.20;;;;;;5113120;28;20063;-81
2021/01/13 08:31:50;;;;;;;17.73;9.80;;;0.50;96.10;;;;;;5094648;28;20047;-80
2021/01/13 08:34:18;;;;;;;17.40;8.37;;;0.60;95.80;;;;;;5105426;28;20477;-80
2021/01/13 08:36:54;;;;;;;13.50;6.93;;;0.60;95.80;;;;;;5113163;28;20023;-81
2021/01/13 08:39:28;;;;;;;13.33;6.97;;;0.70;95.00;;;;;;5094648;28;20024;-81
2021/01/13 08:42:14;;;;;;;11.37;8.60;;;0.70;95.10;;;;;;5094733;28;20480;-80
2021/01/13 08:44:43;;;;;;;11.90;7.57;;;0.70;95.40;;;;;;5112822;28;20035;-81
2021/01/13 08:47:09;;;;;;;12.70;7.53;;;0.80;94.90;;;;;;5112788;28;20031;-80
2021/01/13 08:49:35;;;;;;;8.70;4.93;;;0.80;94.90;;;;;;5094599;28;20684;-76
2021/01/13 08:52:10;;;;;;;18.17;7.43;;;1.40;99.90;;;;;;5112641;28;20106;-78
2021/01/13 08:54:56;;;;;;;14.50;7.60;;;1.60;95.80;;;;;;5100053;28;20114;-77
2021/01/13 08:58:01;;;;;;;11.33;7.37;;;1.50;94.50;;;;;;5085986;28;20114;-80
2021/01/13 09:04:31;;;;;;;;;;;1.50;93.20;;;;;;5098286;28;20489;-81
2021/01/13 09:07:05;;;;;;;15.10;7.57;;;1.40;93.30;;;;;;5099530;28;19967;-77
2021/01/13 09:09:33;;;;;;;13.17;7.33;;;1.40;93.20;;;;;;5070938;28;20052;-77
2021/01/13 09:11:59;;;;;;;22.20;10.03;;;1.40;93.20;;;;;;5072013;28;20024;-78
2021/01/13 09:14:32;;;;;;;19.63;9.33;;;1.50;93.20;;;;;;5072111;28;20550;-78
2021/01/13 09:16:58;;;;;;;19.20;7.70;;;1.50;93.50;;;;;;5070883;28;20535;-78
2021/01/13 09:19:30;;;;;;;20.97;7.57;;;1.70;93.10;;;;;;5072060;28;20017;-77
2021/01/13 09:22:01;;;;;;;19.90;7.55;;;1.80;92.70;;;;;;5072200;28;20024;-77
2021/01/13 09:24:39;;;;;;;15.95;8.88;;;1.70;92.90;;;;;;5071992;28;20032;-77
2021/01/13 09:27:06;;;;;;;21.93;9.20;;;1.70;93.50;;;;;;5070745;28;20074;-77
2021/01/13 09:29:54;;;;;;;21.00;9.07;;;1.70;92.80;;;;;;5073325;28;20029;-77
2021/01/13 09:32:21;;;;;;;17.53;10.00;;;1.90;92.70;;;;;;5069158;28;20025;-77
2021/01/13 09:34:53;;;;;;;15.17;9.63;;;1.90;93.00;;;;;;5074550;28;20028;-77
2021/01/13 09:37:21;;;;;;;21.77;10.32;;;2.00;93.20;;;;;;5067809;28;21357;-77
2021/01/13 09:39:56;;;;;;;21.20;12.07;;;2.00;93.70;;;;;;5074255;28;20033;-77
2021/01/13 09:42:34;;;;;;;21.23;11.37;;;2.10;93.60;;;;;;5075363;28;20043;-78
2021/01/13 09:45:00;;;;;;;19.93;9.60;;;2.20;93.60;;;;;;5075627;28;20059;-80
2021/01/13 09:47:27;;;;;;;16.43;9.33;;;2.30;92.80;;;;;;5073991;28;20098;-80
2021/01/13 09:49:58;;;;;;;13.77;8.03;;;2.30;93.00;;;;;;5073896;28;20025;-80
2021/01/13 09:52:44;;;;;;;15.07;8.90;;;2.40;92.70;;;;;;5075625;28;20029;-78
2021/01/13 09:55:11;;;;;;;10.50;7.23;;;2.40;92.70;;;;;;5066043;28;20082;-77
2021/01/13 09:57:40;;;;;;;14.47;7.60;;;2.40;92.40;;;;;;5073937;28;20405;-78
2021/01/13 10:00:13;;;;;;;9.30;6.43;;;2.60;90.30;;;;;;5074952;28;20078;-80
2021/01/13 10:02:41;;;;;;;11.33;7.10;;;2.70;87.50;;;;;;5100915;28;20614;-80
2021/01/13 10:05:09;;;;;;;15.40;8.87;;;2.90;87.90;;;;;;5114307;28;20051;-80
2021/01/13 10:07:37;;;;;;;17.17;7.53;;;3.00;88.90;;;;;;5115581;28;20031;-81
2021/01/13 10:10:06;;;;;;;22.90;8.27;;;3.00;87.20;;;;;;5115802;28;20484;-78
2021/01/13 10:12:45;;;;;;;18.07;8.83;;;3.00;86.70;;;;;;5097498;28;20020;-81
2021/01/13 10:15:13;;;;;;;17.03;9.37;;;3.10;86.80;;;;;;5097473;28;20016;-81
2021/01/13 10:17:41;;;;;;;13.27;8.87;;;3.10;87.00;;;;;;5097396;28;20117;-81
2021/01/13 10:20:12;;;;;;;13.40;8.33;;;3.10;86.80;;;;;;5115190;28;20022;-81
2021/01/13 10:22:39;;;;;;;13.20;8.07;;;3.10;85.80;;;;;;5097376;28;20389;-80
2021/01/13 10:25:06;;;;;;;19.27;8.80;;;3.20;86.10;;;;;;5115465;28;20135;-77
2021/01/13 10:27:32;;;;;;;21.27;8.83;;;3.30;85.30;;;;;;5115134;28;20098;-77
2021/01/13 10:29:58;;;;;;;16.43;8.67;;;3.40;84.40;;;;;;5115260;28;20659;-77
2021/01/13 10:32:24;;;;;;;19.03;9.17;;;3.50;82.80;;;;;;5097131;28;20053;-77
2021/01/13 10:34:54;;;;;;;14.30;8.27;;;3.50;81.00;;;;;;5115018;28;20019;-77
2021/01/13 10:37:20;;;;;;;12.20;7.63;;;3.50;80.00;;;;;;5115230;28;20061;-77
2021/01/13 10:39:46;;;;;;;12.13;7.80;;;3.50;80.30;;;;;;5113925;28;20385;-80
2021/01/13 10:42:12;;;;;;;14.17;7.70;;;3.50;81.50;;;;;;5114920;28;20019;-80
2021/01/13 10:44:39;;;;;;;18.43;8.30;;;3.60;81.70;;;;;;5115130;28;20031;-81
2021/01/13 10:47:09;;;;;;;12.90;7.40;;;3.60;80.50;;;;;;5114988;28;20555;-80
2021/01/13 10:49:42;;;;;;;23.97;8.90;;;3.70;80.30;;;;;;5096153;28;20482;-80
2021/01/13 10:52:19;;;;;;;19.70;9.03;;;3.70;79.70;;;;;;5096801;28;20419;-81
2021/01/13 10:54:47;;;;;;;19.03;8.77;;;3.80;79.30;;;;;;5096429;28;20047;-81
2021/01/13 10:57:30;;;;;;;18.50;8.57;;;3.80;80.20;;;;;;5096386;28;20032;-81
2021/01/13 11:00:11;;;;;;;15.83;8.03;;;3.90;80.10;;;;;;5096027;28;20027;-81
2021/01/13 11:02:37;;;;;;;18.60;7.97;;;3.90;77.70;;;;;;5107671;28;20049;-81
2021/01/13 11:05:04;;;;;;;12.20;7.27;;;4.10;80.20;;;;;;5100057;28;20027;-81
2021/01/13 11:07:40;;;;;;;17.73;8.03;;;4.20;79.90;;;;;;5114068;28;20020;-81
2021/01/13 11:10:10;;;;;;;12.77;7.93;;;4.30;77.90;;;;;;5095881;28;20573;-78
2021/01/13 11:12:36;;;;;;;10.60;7.27;;;4.30;77.20;;;;;;5114038;28;20024;-77
2021/01/13 11:15:07;;;;;;;16.30;7.57;;;4.40;76.00;;;;;;5095714;28;20042;-77
2021/01/13 11:17:33;;;;;;;11.32;7.00;;;4.50;76.80;;;;;;5114462;28;20032;-77
2021/01/13 11:20:00;;;;;;;13.63;8.20;;;4.50;74.20;;;;;;5094554;28;20508;-82
2021/01/13 11:22:51;;;;;;;14.15;8.02;;;4.60;74.60;;;;;;5094574;28;20122;-82
2021/01/13 11:25:27;;;;;;;18.87;8.07;;;4.60;75.30;;;;;;5092439;28;20536;-77
2021/01/13 11:27:54;;;;;;;23.42;9.00;;;4.70;75.70;;;;;;5089414;28;20110;-77
2021/01/13 11:30:20;;;;;;;20.55;9.77;;;4.80;73.00;;;;;;5094848;28;20429;-77
2021/01/13 11:32:51;;;;;;;20.17;10.32;;;4.70;73.20;;;;;;5094185;28;20154;-77
2021/01/13 11:35:28;;;;;;;18.23;9.90;;;4.70;75.20;;;;;;5094727;28;20495;-77
2021/01/13 11:38:32;;;;;;;16.75;8.65;;;4.80;75.10;;;;;;5113243;28;20388;-77
2021/01/13 11:41:22;;;;;;;25.15;11.20;;;4.90;73.40;;;;;;5109627;27;20058;-77
2021/01/13 11:44:22;;;;;;;15.95;9.00;;;4.90;73.00;;;;;;5108009;28;20034;-77
2021/01/13 11:47:06;;;;;;;18.05;9.10;;;4.90;72.90;;;;;;5106955;28;20027;-79
2021/01/13 11:49:44;;;;;;;22.45;9.55;;;4.90;70.10;;;;;;5095108;28;20423;-81
2021/01/13 11:52:16;;;;;;;17.20;8.70;;;4.90;70.60;;;;;;5113440;28;20015;-82
2021/01/13 11:54:48;;;;;;;16.20;8.15;;;5.00;70.40;;;;;;5113204;28;20024;-81
2021/01/13 11:57:26;;;;;;;14.23;9.35;;;5.00;69.90;;;;;;5106179;28;20028;-77
2021/01/13 12:00:10;;;;;;;18.70;9.02;;;5.10;71.60;;;;;;5095393;28;20049;-77
2021/01/13 12:02:37;;;;;;;30.33;9.38;;;5.20;72.60;;;;;;5088702;28;20012;-77
2021/01/13 12:05:04;;;;;;;17.75;8.32;;;5.20;72.30;;;;;;5113297;28;20373;-78
2021/01/13 12:07:30;;;;;;;13.77;8.55;;;5.30;70.60;;;;;;5094758;28;20031;-78
2021/01/13 12:10:13;;;;;;;13.02;8.35;;;5.30;70.30;;;;;;5113722;28;20115;-78
2021/01/13 12:12:40;;;;;;;15.32;7.53;;;5.30;71.70;;;;;;5113231;28;20373;-78
2021/01/13 12:15:11;;;;;;;18.98;7.57;;;5.40;71.10;;;;;;5113542;28;20069;-78
2021/01/13 12:18:04;;;;;;;17.67;8.55;;;5.50;71.80;;;;;;5094773;28;20034;-78
2021/01/13 12:20:31;;;;;;;15.25;7.60;;;5.50;72.30;;;;;;5104664;28;20044;-78
2021/01/13 12:22:57;;;;;;;24.52;8.32;;;5.60;71.30;;;;;;5095036;28;20546;-78
2021/01/13 12:25:26;;;;;;;19.15;8.80;;;5.70;71.10;;;;;;5113087;28;20031;-78
2021/01/13 12:28:07;;;;;;;18.20;9.05;;;5.70;71.00;;;;;;5094924;28;20028;-78
2021/01/13 12:30:33;;;;;;;11.20;8.25;;;5.60;70.90;;;;;;5113006;28;20028;-78
2021/01/13 12:33:01;;;;;;;15.75;8.50;;;5.70;71.10;;;;;;5094922;28;20046;-78
2021/01/13 12:35:30;;;;;;;17.60;9.98;;;5.70;71.40;;;;;;5094747;28;20019;-78
2021/01/13 12:37:56;;;;;;;17.50;9.57;;;5.70;72.90;;;;;;5094572;28;20027;-78
2021/01/13 12:40:30;;;;;;;15.85;9.82;;;5.70;72.90;;;;;;5094601;28;20036;-78
2021/01/13 12:42:56;;;;;;;22.08;10.43;;;5.60;72.30;;;;;;5113113;28;20042;-78
2021/01/13 12:45:22;;;;;;;18.15;9.38;;;5.60;71.90;;;;;;5112811;28;20028;-78
2021/01/13 12:47:55;;;;;;;18.25;9.68;;;5.60;72.60;;;;;;5094809;28;20036;-78
2021/01/13 12:50:21;;;;;;;17.75;9.32;;;5.60;72.80;;;;;;5113059;28;20512;-79
2021/01/13 12:52:50;;;;;;;16.60;10.18;;;5.60;72.20;;;;;;5128704;28;20034;-79
2021/01/13 12:55:15;;;;;;;18.08;10.27;;;5.60;73.00;;;;;;5094623;28;20036;-78
2021/01/13 12:57:41;;;;;;;17.83;9.32;;;5.50;73.30;;;;;;5094723;28;20521;-78
2021/01/13 13:00:07;;;;;;;18.60;10.18;;;5.50;72.40;;;;;;5112601;28;20023;-78
2021/01/13 13:02:32;;;;;;;20.45;10.80;;;5.50;73.20;;;;;;5093975;28;20020;-79
2021/01/13 13:04:58;;;;;;;22.90;11.52;;;5.50;74.50;;;;;;5116385;28;20050;-79
2021/01/13 13:07:24;;;;;;;18.33;11.10;;;5.50;74.80;;;;;;5098669;28;20118;-82
2021/01/13 13:09:49;;;;;;;19.10;10.30;;;5.50;74.50;;;;;;5116904;28;20445;-82
2021/01/13 13:12:16;;;;;;;22.35;11.98;;;5.50;73.20;;;;;;5098817;28;20022;-82
2021/01/13 13:14:42;;;;;;;18.42;10.90;;;5.50;73.30;;;;;;5098334;28;20084;-82